createdAt,value
2023-05-16T00:01:09.383Z,100366.38
2023-05-16T00:03:38.392Z,100368.69
2023-05-16T00:06:06.108Z,100363.84
2023-05-16T00:08:33.597Z,100361.81
2023-05-16T00:11:01.632Z,100361.34
2023-05-16T00:13:29.809Z,100362.53
2023-05-16T00:15:59.493Z,100366.91
2023-05-16T00:18:27.201Z,100359.75
2023-05-16T00:20:55.591Z,100353.38
2023-05-16T00:23:23.082Z,100360.84
2023-05-16T00:25:50.873Z,100364.69
2023-05-16T00:28:18.854Z,100372.56
2023-05-16T00:30:46.397Z,100370.94
2023-05-16T00:33:14.073Z,100379.25
2023-05-16T00:35:41.657Z,100377.66
2023-05-16T00:38:09.374Z,100379.25
2023-05-16T00:40:37.165Z,100381.59
2023-05-16T00:43:04.992Z,100374.88
2023-05-16T00:45:32.478Z,100374.88
2023-05-16T00:48:00.032Z,100378.13
2023-05-16T00:50:27.821Z,100367.72
2023-05-16T00:52:55.688Z,100372.09
2023-05-16T00:55:23.226Z,100366.53
2023-05-16T00:57:50.838Z,100370.50
2023-05-16T01:00:20.009Z,100370.50
2023-05-16T01:02:48.510Z,100373.63
2023-05-16T01:05:16.239Z,100365.66
2023-05-16T01:07:43.776Z,100363.69
2023-05-16T01:10:11.559Z,100371.19
2023-05-16T01:12:48.730Z,100379.53
2023-05-16T01:15:21.778Z,100369.13
2023-05-16T01:18:11.365Z,100369.47
2023-05-16T01:20:52.518Z,100378.16
2023-05-16T01:23:33.554Z,100378.84
2023-05-16T01:26:19.760Z,100370.44
2023-05-16T01:28:47.671Z,100373.22
2023-05-16T01:31:15.238Z,100371.22
2023-05-16T01:33:42.944Z,100376.78
2023-05-16T01:36:23.923Z,100373.66
2023-05-16T01:39:44.718Z,100377.78
2023-05-16T01:42:14.198Z,100381.69
2023-05-16T01:44:41.840Z,100383.31
2023-05-16T01:47:13.483Z,100381.69
2023-05-16T01:49:45.471Z,100378.47
2023-05-16T01:52:16.489Z,100375.22
2023-05-16T01:54:45.533Z,100373.53
2023-05-16T01:57:13.205Z,100379.53
2023-05-16T01:59:41.223Z,100366.47
2023-05-16T02:02:09.176Z,100368.91
2023-05-16T02:04:38.129Z,100370.41
2023-05-16T02:07:06.554Z,100369.59
2023-05-16T02:09:34.606Z,100375.50
2023-05-16T02:12:02.487Z,100380.25
2023-05-16T02:14:31.078Z,100374.34
2023-05-16T02:16:58.824Z,100372.72
2023-05-16T02:19:27.228Z,100376.66
2023-05-16T02:21:54.752Z,100375.06
2023-05-16T02:24:22.539Z,100375.88
2023-05-16T02:26:49.966Z,100383.38
2023-05-16T02:29:18.377Z,100386.41
2023-05-16T02:31:47.249Z,100384.34
2023-05-16T02:34:15.523Z,100381.13
2023-05-16T02:36:43.229Z,100376.38
2023-05-16T02:39:11.370Z,100381.56
2023-05-16T02:41:38.859Z,100383.50
2023-05-16T02:44:06.331Z,100387.56
2023-05-16T02:46:34.654Z,100391.03
2023-05-16T02:49:04.878Z,100388.28
2023-05-16T02:51:32.438Z,100384.25
2023-05-16T02:54:01.198Z,100391.31
2023-05-16T02:56:28.794Z,100389.31
2023-05-16T02:58:56.571Z,100392.91
2023-05-16T03:01:24.307Z,100386.19
2023-05-16T03:03:52.154Z,100397.75
2023-05-16T03:06:19.747Z,100396.13
2023-05-16T03:08:47.503Z,100400.06
2023-05-16T03:11:22.870Z,100402.84
2023-05-16T03:13:50.915Z,100399.38
2023-05-16T03:16:18.558Z,100400.97
2023-05-16T03:18:46.455Z,100396.69
2023-05-16T03:21:14.093Z,100398.66
2023-05-16T03:23:41.772Z,100406.53
2023-05-16T03:26:09.431Z,100398.66
2023-05-16T03:28:37.518Z,100393.91
2023-05-16T03:31:05.312Z,100401.06
2023-05-16T03:33:32.943Z,100406.72
2023-05-16T03:36:00.507Z,100408.69
2023-05-16T03:38:28.169Z,100408.34
2023-05-16T03:40:56.310Z,100403.97
2023-05-16T03:43:24.028Z,100404.41
2023-05-16T03:45:51.601Z,100406.81
2023-05-16T03:48:19.718Z,100401.38
2023-05-16T03:50:47.914Z,100402.63
2023-05-16T03:53:15.475Z,100403.88
2023-05-16T03:55:43.457Z,100400.06
2023-05-16T03:58:11.585Z,100395.75
2023-05-16T04:00:39.262Z,100398.28
2023-05-16T04:03:06.805Z,100405.06
2023-05-16T04:05:34.396Z,100400.78
2023-05-16T04:08:02.011Z,100397.78
2023-05-16T04:10:29.686Z,100399.84
2023-05-16T04:12:57.234Z,100395.19
2023-05-16T04:15:25.014Z,100397.63
2023-05-16T04:17:52.723Z,100393.75
2023-05-16T04:20:20.333Z,100397.44
2023-05-16T04:22:48.142Z,100401.13
2023-05-16T04:25:15.789Z,100407.56
2023-05-16T04:27:43.680Z,100401.31
2023-05-16T04:30:12.126Z,100398.25
2023-05-16T04:32:39.971Z,100400.75
2023-05-16T04:35:09.271Z,100394.94
2023-05-16T04:37:38.110Z,100402.28
2023-05-16T04:40:07.852Z,100398.88
2023-05-16T04:42:35.639Z,100396.63
2023-05-16T04:45:04.183Z,100396.72
2023-05-16T04:47:32.363Z,100389.72
2023-05-16T04:49:59.818Z,100400.28
2023-05-16T04:52:27.307Z,100400.47
2023-05-16T04:54:54.883Z,100395.88
2023-05-16T04:57:22.774Z,100397.63
2023-05-16T04:59:50.295Z,100390.63
2023-05-16T05:02:17.854Z,100401.91
2023-05-16T05:04:45.626Z,100396.34
2023-05-16T05:07:14.592Z,100407.91
2023-05-16T05:09:43.147Z,100394.97
2023-05-16T05:12:11.375Z,100400.59
2023-05-16T05:14:38.906Z,100405.81
2023-05-16T05:17:06.769Z,100403.97
2023-05-16T05:19:34.535Z,100408.88
2023-05-16T05:22:02.128Z,100409.41
2023-05-16T05:24:29.867Z,100409.97
2023-05-16T05:26:57.403Z,100406.09
2023-05-16T05:29:24.950Z,100407.44
2023-05-16T05:31:52.655Z,100399.91
2023-05-16T05:34:20.489Z,100413.06
2023-05-16T05:36:48.062Z,100410.28
2023-05-16T05:39:15.735Z,100408.78
2023-05-16T05:41:43.365Z,100403.28
2023-05-16T05:44:10.791Z,100402.50
2023-05-16T05:46:38.974Z,100409.41
2023-05-16T05:49:06.482Z,100412.19
2023-05-16T05:51:34.871Z,100408.22
2023-05-16T05:54:03.184Z,100411.16
2023-05-16T05:56:30.973Z,100407.63
2023-05-16T05:58:58.633Z,100414.88
2023-05-16T06:01:26.611Z,100420.13
2023-05-16T06:03:54.118Z,100415.94
2023-05-16T06:06:21.665Z,100417.69
2023-05-16T06:08:49.287Z,100416.91
2023-05-16T06:11:16.800Z,100411.50
2023-05-16T06:13:44.381Z,100415.56
2023-05-16T06:16:11.953Z,100414.94
2023-05-16T06:18:39.574Z,100422.56
2023-05-16T06:21:07.165Z,100415.91
2023-05-16T06:23:35.937Z,100427.22
2023-05-16T06:26:03.832Z,100418.22
2023-05-16T06:28:31.870Z,100424.69
2023-05-16T06:30:59.358Z,100417.25
2023-05-16T06:33:27.617Z,100420.53
2023-05-16T06:35:55.188Z,100412.69
2023-05-16T06:38:22.801Z,100411.03
2023-05-16T06:40:50.289Z,100412.69
2023-05-16T06:43:18.020Z,100410.88
2023-05-16T06:45:46.858Z,100404.28
2023-05-16T06:48:15.570Z,100417.53
2023-05-16T06:50:43.192Z,100412.47
2023-05-16T06:53:12.187Z,100407.75
2023-05-16T06:55:40.161Z,100413.81
2023-05-16T06:58:07.664Z,100413.50
2023-05-16T07:00:35.944Z,100415.16
2023-05-16T07:03:04.041Z,100416.78
2023-05-16T07:05:32.174Z,100416.88
2023-05-16T07:08:00.009Z,100421.38
2023-05-16T07:10:27.724Z,100414.69
2023-05-16T07:12:55.858Z,100414.78
2023-05-16T07:15:23.544Z,100422.88
2023-05-16T07:17:51.118Z,100424.56
2023-05-16T07:20:18.784Z,100422.63
2023-05-16T07:22:46.351Z,100415.88
2023-05-16T07:25:15.246Z,100426.38
2023-05-16T07:27:44.859Z,100423.66
2023-05-16T07:30:13.349Z,100430.13
2023-05-16T07:32:41.450Z,100420.25
2023-05-16T07:35:10.092Z,100422.25
2023-05-16T07:37:42.604Z,100419.13
2023-05-16T07:40:13.324Z,100425.94
2023-05-16T07:42:40.957Z,100423.53
2023-05-16T07:45:09.043Z,100423.59
2023-05-16T07:47:37.091Z,100421.63
2023-05-16T07:50:05.171Z,100422.03
2023-05-16T07:52:33.056Z,100417.69
2023-05-16T07:55:00.692Z,100419.72
2023-05-16T07:57:28.548Z,100413.78
2023-05-16T07:59:56.176Z,100415.03
2023-05-16T08:02:26.455Z,100417.84
2023-05-16T08:04:55.150Z,100415.84
2023-05-16T08:07:23.102Z,100415.94
2023-05-16T08:09:50.617Z,100417.97
2023-05-16T08:12:18.338Z,100423.19
2023-05-16T08:14:45.967Z,100418.44
2023-05-16T08:17:14.793Z,100418.44
2023-05-16T08:19:42.682Z,100417.66
2023-05-16T08:22:10.200Z,100414.47
2023-05-16T08:24:38.081Z,100412.88
2023-05-16T08:27:06.075Z,100412.91
2023-05-16T08:29:34.494Z,100420.13
2023-05-16T08:32:02.180Z,100414.91
2023-05-16T08:34:33.369Z,100412.16
2023-05-16T08:37:01.605Z,100412.97
2023-05-16T08:39:30.837Z,100411.38
2023-05-16T08:41:59.039Z,100412.97
2023-05-16T08:44:28.587Z,100405.75
2023-05-16T08:46:56.317Z,100409.78
2023-05-16T08:49:24.091Z,100410.97
2023-05-16T08:51:51.987Z,100401.75
2023-05-16T08:54:19.864Z,100402.97
2023-05-16T08:56:48.328Z,100394.13
2023-05-16T08:59:15.811Z,100393.75
2023-05-16T09:01:43.359Z,100389.31
2023-05-16T09:04:11.078Z,100396.94
2023-05-16T09:06:38.607Z,100384.88
2023-05-16T09:09:08.164Z,100387.28
2023-05-16T09:11:37.115Z,100376.06
2023-05-16T09:14:05.831Z,100380.06
2023-05-16T09:16:33.861Z,100377.66
2023-05-16T09:19:01.936Z,100365.97
2023-05-16T09:21:33.470Z,100366.34
2023-05-16T09:24:04.986Z,100370.72
2023-05-16T09:26:33.850Z,100371.91
2023-05-16T09:29:02.364Z,100371.09
2023-05-16T09:31:38.056Z,100367.84
2023-05-16T09:34:09.353Z,100374.25
2023-05-16T09:36:37.746Z,100373.00
2023-05-16T09:39:08.819Z,100369.38
2023-05-16T09:41:36.698Z,100364.94
2023-05-16T09:44:06.508Z,100368.50
2023-05-16T09:46:37.744Z,100366.84
2023-05-16T09:49:05.406Z,100366.09
2023-05-16T09:51:33.603Z,100361.28
2023-05-16T09:54:01.266Z,100362.91
2023-05-16T09:56:30.226Z,100358.50
2023-05-16T09:58:57.816Z,100364.97
2023-05-16T10:01:25.397Z,100361.78
2023-05-16T10:03:53.195Z,100365.34
2023-05-16T10:06:20.903Z,100357.31
2023-05-16T10:08:48.551Z,100358.19
2023-05-16T10:11:16.419Z,100357.78
2023-05-16T10:13:45.052Z,100352.97
2023-05-16T10:16:12.773Z,100365.38
2023-05-16T10:18:40.612Z,100362.97
2023-05-16T10:21:11.742Z,100362.16
2023-05-16T10:23:43.625Z,100357.28
2023-05-16T10:26:14.195Z,100358.06
2023-05-16T10:28:42.170Z,100352.03
2023-05-16T10:31:11.402Z,100353.25
2023-05-16T10:33:40.247Z,100349.63
2023-05-16T10:36:11.200Z,100348.84
2023-05-16T10:38:39.529Z,100354.03
2023-05-16T10:41:07.715Z,100352.47
2023-05-16T10:43:35.432Z,100348.09
2023-05-16T10:46:05.375Z,100355.31
2023-05-16T10:48:35.341Z,100357.72
2023-05-16T10:51:03.416Z,100355.72
2023-05-16T10:53:35.263Z,100356.50
2023-05-16T10:56:03.320Z,100358.53
2023-05-16T10:58:33.973Z,100356.53
2023-05-16T11:01:35.860Z,100351.00
2023-05-16T11:04:10.523Z,100355.84
2023-05-16T11:06:41.104Z,100346.22
2023-05-16T11:09:19.834Z,100348.66
2023-05-16T11:11:53.654Z,100350.28
2023-05-16T11:14:42.576Z,100353.53
2023-05-16T11:17:23.280Z,100353.56
2023-05-16T11:19:59.631Z,100348.81
2023-05-16T11:22:31.125Z,100351.22
2023-05-16T11:25:03.372Z,100360.84
2023-05-16T11:27:38.856Z,100358.84
2023-05-16T11:30:06.583Z,100356.06
2023-05-16T11:32:35.598Z,100355.66
2023-05-16T11:35:04.252Z,100359.25
2023-05-16T11:37:32.047Z,100359.28
2023-05-16T11:40:04.414Z,100362.09
2023-05-16T11:42:41.546Z,100365.31
2023-05-16T11:45:10.530Z,100368.53
2023-05-16T11:47:39.011Z,100376.91
2023-05-16T11:50:27.462Z,100377.34
2023-05-16T11:52:57.569Z,100381.72
2023-05-16T11:55:41.432Z,100374.53
2023-05-16T11:58:10.187Z,100387.34
2023-05-16T12:00:37.803Z,100388.13
2023-05-16T12:03:06.096Z,100394.56
2023-05-16T12:05:35.017Z,100396.91
2023-05-16T12:08:04.965Z,100389.31
2023-05-16T12:10:35.794Z,100392.09
2023-05-16T12:13:03.751Z,100381.69
2023-05-16T12:15:31.843Z,100389.69
2023-05-16T12:17:59.732Z,100387.31
2023-05-16T12:20:27.601Z,100385.69
2023-05-16T12:22:57.601Z,100382.88
2023-05-16T12:25:29.549Z,100381.69
2023-05-16T12:28:01.315Z,100376.06
2023-05-16T12:30:31.312Z,100381.66
2023-05-16T12:33:00.160Z,100378.47
2023-05-16T12:35:33.429Z,100376.88
2023-05-16T12:38:05.841Z,100379.66
2023-05-16T12:40:33.424Z,100371.22
2023-05-16T12:43:01.266Z,100376.81
2023-05-16T12:45:29.334Z,100375.22
2023-05-16T12:47:56.972Z,100379.22
2023-05-16T12:50:29.534Z,100377.59
2023-05-16T12:52:59.635Z,100372.41
2023-05-16T12:55:27.426Z,100376.03
2023-05-16T12:57:55.664Z,100379.22
2023-05-16T13:00:23.580Z,100380.81
2023-05-16T13:02:52.371Z,100380.00
2023-05-16T13:05:22.166Z,100378.81
2023-05-16T13:07:51.642Z,100379.19
2023-05-16T13:10:19.313Z,100383.19
2023-05-16T13:12:47.508Z,100380.78
2023-05-16T13:15:15.302Z,100389.19
2023-05-16T13:17:46.360Z,100387.19
2023-05-16T13:20:15.358Z,100403.56
2023-05-16T13:22:43.706Z,100388.75
2023-05-16T13:25:12.302Z,100390.34
2023-05-16T13:27:39.932Z,100397.50
2023-05-16T13:30:07.956Z,100390.31
2023-05-16T13:32:36.175Z,100393.47
2023-05-16T13:35:04.264Z,100393.06
2023-05-16T13:37:32.261Z,100386.25
2023-05-16T13:39:59.985Z,100380.63
2023-05-16T13:42:27.695Z,100382.59
2023-05-16T13:44:55.244Z,100387.00
2023-05-16T13:47:22.776Z,100384.59
2023-05-16T13:49:50.808Z,100388.59
2023-05-16T13:52:18.472Z,100380.56
2023-05-16T13:54:46.117Z,100386.16
2023-05-16T13:57:13.666Z,100378.16
2023-05-16T14:02:11.710Z,100376.56
2023-05-16T14:04:39.177Z,100378.16
2023-05-16T14:07:07.264Z,100371.78
2023-05-16T14:09:35.527Z,100381.38
2023-05-16T14:12:03.134Z,100368.16
2023-05-16T14:14:30.815Z,100369.38
2023-05-16T14:16:58.458Z,100375.34
2023-05-16T14:19:26.174Z,100366.19
2023-05-16T14:21:53.771Z,100371.75
2023-05-16T14:24:21.450Z,100356.53
2023-05-16T14:26:49.306Z,100362.13
2023-05-16T14:29:17.146Z,100354.16
2023-05-16T14:31:44.937Z,100356.53
2023-05-16T14:34:12.599Z,100359.72
2023-05-16T14:36:40.120Z,100355.31
2023-05-16T14:39:08.706Z,100356.09
2023-05-16T14:41:36.547Z,100366.06
2023-05-16T14:44:04.335Z,100357.25
2023-05-16T14:46:32.031Z,100364.44
2023-05-16T14:48:59.760Z,100358.03
2023-05-16T14:51:27.290Z,100365.59
2023-05-16T14:53:56.067Z,100361.56
2023-05-16T14:56:23.610Z,100355.94
2023-05-16T14:58:51.385Z,100355.47
2023-05-16T15:01:19.018Z,100349.06
2023-05-16T15:03:55.550Z,100362.63
2023-05-16T15:06:24.873Z,100360.22
2023-05-16T15:08:54.068Z,100363.41
2023-05-16T15:11:21.895Z,100361.78
2023-05-16T15:13:49.520Z,100353.78
2023-05-16T15:16:17.113Z,100353.72
2023-05-16T15:18:44.904Z,100359.69
2023-05-16T15:21:12.658Z,100359.69
2023-05-16T15:23:40.302Z,100360.88
2023-05-16T15:26:07.841Z,100351.69
2023-05-16T15:28:35.850Z,100352.50
2023-05-16T15:31:04.813Z,100348.09
2023-05-16T15:33:33.245Z,100354.06
2023-05-16T15:36:01.709Z,100349.31
2023-05-16T15:38:30.681Z,100348.88
2023-05-16T15:41:14.203Z,100346.84
2023-05-16T15:43:46.353Z,100357.19
2023-05-16T15:46:14.097Z,100359.56
2023-05-16T15:48:44.684Z,100363.13
2023-05-16T15:51:13.155Z,100359.94
2023-05-16T15:53:40.768Z,100364.69
2023-05-16T15:56:08.866Z,100368.69
2023-05-16T15:58:36.590Z,100365.44
2023-05-16T16:01:04.196Z,100363.44
2023-05-16T16:03:32.479Z,100367.41
2023-05-16T16:06:00.108Z,100357.44
2023-05-16T16:08:28.071Z,100358.63
2023-05-16T16:10:57.141Z,100363.41
2023-05-16T16:13:25.349Z,100365.78
2023-05-16T16:15:52.948Z,100368.56
2023-05-16T16:18:20.473Z,100366.50
2023-05-16T16:20:48.100Z,100377.59
2023-05-16T16:23:15.930Z,100376.00
2023-05-16T16:25:43.446Z,100375.59
2023-05-16T16:28:11.121Z,100374.31
2023-05-16T16:30:39.413Z,100379.50
2023-05-16T16:33:07.351Z,100374.69
2023-05-16T16:35:34.996Z,100378.25
2023-05-16T16:38:07.130Z,100380.16
2023-05-16T16:40:35.394Z,100372.97
2023-05-16T16:43:04.444Z,100370.19
2023-05-16T16:45:32.076Z,100372.56
2023-05-16T16:47:59.757Z,100371.72
2023-05-16T16:50:27.563Z,100378.06
2023-05-16T16:52:55.261Z,100382.03
2023-05-16T16:55:22.810Z,100383.22
2023-05-16T16:57:50.540Z,100386.41
2023-05-16T17:00:18.496Z,100385.59
2023-05-16T17:02:46.222Z,100381.56
2023-05-16T17:05:13.959Z,100388.72
2023-05-16T17:07:42.693Z,100391.88
2023-05-16T17:10:10.532Z,100382.28
2023-05-16T17:12:46.189Z,100383.03
2023-05-16T17:15:13.864Z,100385.44
2023-05-16T17:17:42.167Z,100388.56
2023-05-16T17:20:12.709Z,100382.94
2023-05-16T17:22:40.822Z,100381.66
2023-05-16T17:25:09.958Z,100385.59
2023-05-16T17:27:37.801Z,100396.31
2023-05-16T17:30:06.479Z,100393.13
2023-05-16T17:32:34.339Z,100399.06
2023-05-16T17:35:04.217Z,100401.00
2023-05-16T17:37:32.469Z,100396.63
2023-05-16T17:40:00.050Z,100404.97
2023-05-16T17:42:27.893Z,100414.53
2023-05-16T17:44:55.474Z,100405.72
2023-05-16T17:47:23.400Z,100415.28
2023-05-16T17:49:51.050Z,100420.47
2023-05-16T17:52:20.296Z,100418.03
2023-05-16T17:54:49.078Z,100416.00
2023-05-16T17:57:16.626Z,100413.56
2023-05-16T17:59:44.434Z,100428.72
2023-05-16T18:02:15.398Z,100425.06
2023-05-16T18:04:43.354Z,100432.19
2023-05-16T18:07:11.010Z,100434.94
2023-05-16T18:09:38.816Z,100432.91
2023-05-16T18:12:07.106Z,100430.06
2023-05-16T18:14:35.621Z,100424.88
2023-05-16T18:17:03.804Z,100420.47
2023-05-16T18:19:31.809Z,100422.81
2023-05-16T18:22:00.111Z,100427.16
2023-05-16T18:24:27.921Z,100429.53
2023-05-16T18:26:56.298Z,100424.31
2023-05-16T18:29:23.883Z,100430.28
2023-05-16T18:31:51.609Z,100431.81
2023-05-16T18:34:19.323Z,100439.34
2023-05-16T18:36:48.618Z,100441.69
2023-05-16T18:39:17.931Z,100431.28
2023-05-16T18:41:46.833Z,100434.44
2023-05-16T18:44:17.255Z,100435.63
2023-05-16T18:46:46.128Z,100441.94
2023-05-16T18:49:14.053Z,100440.75
2023-05-16T18:51:41.670Z,100446.72
2023-05-16T18:54:09.196Z,100443.09
2023-05-16T18:56:37.203Z,100455.38
2023-05-16T18:59:04.873Z,100456.56
2023-05-16T19:01:32.805Z,100459.72
2023-05-16T19:04:00.708Z,100460.47
2023-05-16T19:06:28.536Z,100448.53
2023-05-16T19:08:56.164Z,100446.91
2023-05-16T19:11:24.137Z,100446.91
2023-05-16T19:13:51.755Z,100450.81
2023-05-16T19:16:19.398Z,100450.03
2023-05-16T19:18:47.251Z,100459.53
2023-05-16T19:21:15.950Z,100449.22
2023-05-16T19:23:45.317Z,100450.72
2023-05-16T19:26:12.935Z,100454.69
2023-05-16T19:28:42.045Z,100454.63
2023-05-16T19:31:12.969Z,100457.03
2023-05-16T19:33:43.128Z,100446.66
2023-05-16T19:36:10.701Z,100451.03
2023-05-16T19:38:38.607Z,100450.66
2023-05-16T19:41:06.137Z,100446.66
2023-05-16T19:43:34.915Z,100443.41
2023-05-16T19:46:02.563Z,100441.81
2023-05-16T19:48:30.285Z,100443.38
2023-05-16T19:50:58.032Z,100438.16
2023-05-16T19:53:25.890Z,100440.94
2023-05-16T19:55:53.959Z,100445.69
2023-05-16T19:58:21.734Z,100433.31
2023-05-16T20:00:50.966Z,100437.28
2023-05-16T20:03:19.239Z,100435.22
2023-05-16T20:05:46.988Z,100433.63
2023-05-16T20:08:14.657Z,100439.97
2023-05-16T20:10:42.392Z,100434.41
2023-05-16T20:13:10.662Z,100435.13
2023-05-16T20:15:38.252Z,100438.28
2023-05-16T20:18:06.468Z,100440.63
2023-05-16T20:20:34.169Z,100428.69
2023-05-16T20:23:01.681Z,100429.88
2023-05-16T20:25:30.374Z,100432.66
2023-05-16T20:27:59.054Z,100439.00
2023-05-16T20:30:26.824Z,100431.84
2023-05-16T20:32:54.638Z,100436.59
2023-05-16T20:35:22.259Z,100429.41
2023-05-16T20:37:50.050Z,100427.00
2023-05-16T20:40:17.925Z,100432.97
2023-05-16T20:42:45.822Z,100433.31
2023-05-16T20:45:13.400Z,100437.28
2023-05-16T20:47:42.569Z,100432.81
2023-05-16T20:50:10.711Z,100430.84
2023-05-16T20:52:38.436Z,100426.00
2023-05-16T20:55:06.509Z,100421.97
2023-05-16T20:57:34.365Z,100426.72
2023-05-16T21:00:01.930Z,100429.47
2023-05-16T21:02:30.346Z,100428.22
2023-05-16T21:04:59.582Z,100420.22
2023-05-16T21:07:33.710Z,100422.59
2023-05-16T21:10:01.245Z,100421.78
2023-05-16T21:12:29.042Z,100422.50
2023-05-16T21:14:57.010Z,100422.44
2023-05-16T21:17:24.531Z,100427.13
2023-05-16T21:19:52.274Z,100417.47
2023-05-16T21:22:20.034Z,100412.28
2023-05-16T21:24:47.582Z,100412.66
2023-05-16T21:27:15.277Z,100413.00
2023-05-16T21:29:42.721Z,100405.34
2023-05-16T21:32:10.385Z,100409.25
2023-05-16T21:34:37.949Z,100416.72
2023-05-16T21:37:07.358Z,100407.50
2023-05-16T21:39:36.001Z,100406.69
2023-05-16T21:42:04.075Z,100405.44
2023-05-16T21:44:31.821Z,100411.28
2023-05-16T21:46:59.574Z,100402.06
2023-05-16T21:49:27.178Z,100400.03
2023-05-16T21:51:54.778Z,100402.38
2023-05-16T21:54:22.359Z,100397.56
2023-05-16T21:56:49.943Z,100395.91
2023-05-16T21:59:17.521Z,100397.09
2023-05-16T22:01:45.326Z,100402.66
2023-05-16T22:04:12.985Z,100393.88
2023-05-16T22:06:40.771Z,100391.09
2023-05-16T22:09:08.864Z,100392.72
2023-05-16T22:11:36.412Z,100385.97
2023-05-16T22:14:04.243Z,100393.13
2023-05-16T22:16:32.104Z,100390.34
2023-05-16T22:18:59.844Z,100391.16
2023-05-16T22:21:27.616Z,100389.22
2023-05-16T22:23:55.206Z,100388.75
2023-05-16T22:26:22.798Z,100387.16
2023-05-16T22:28:50.355Z,100390.28
2023-05-16T22:31:18.135Z,100387.16
2023-05-16T22:33:46.000Z,100384.72
2023-05-16T22:36:13.598Z,100389.47
2023-05-16T22:38:41.347Z,100383.19
2023-05-16T22:41:09.056Z,100382.38
2023-05-16T22:43:36.917Z,100388.31
2023-05-16T22:46:04.631Z,100388.75
2023-05-16T22:48:32.679Z,100388.31
2023-05-16T22:51:00.959Z,100383.19
2023-05-16T22:53:29.131Z,100390.00
2023-05-16T22:55:56.735Z,100392.00
2023-05-16T22:58:24.304Z,100397.56
2023-05-16T23:00:52.164Z,100400.34
2023-05-16T23:03:19.846Z,100399.53
2023-05-16T23:05:47.522Z,100403.13
2023-05-16T23:08:15.063Z,100404.72
2023-05-16T23:10:42.589Z,100405.91
2023-05-16T23:13:10.265Z,100399.16
2023-05-16T23:15:38.054Z,100399.16
2023-05-16T23:18:08.409Z,100400.75
2023-05-16T23:20:36.302Z,100403.13
2023-05-16T23:23:04.092Z,100397.56
2023-05-16T23:25:31.772Z,100401.47
2023-05-16T23:27:59.560Z,100407.03
2023-05-16T23:30:27.101Z,100405.06
2023-05-16T23:32:55.005Z,100403.84
2023-05-16T23:35:22.870Z,100395.50
2023-05-16T23:37:50.373Z,100400.59
2023-05-16T23:40:18.139Z,100399.00
2023-05-16T23:42:45.708Z,100391.81
2023-05-16T23:45:13.312Z,100398.22
2023-05-16T23:47:41.189Z,100408.50
2023-05-16T23:50:09.644Z,100399.34
2023-05-16T23:52:37.385Z,100406.09
2023-05-16T23:55:05.591Z,100399.72
2023-05-16T23:57:33.700Z,100405.66
